首页
METAR-TAF:

METAR-TAF

机场 :

Clinton Municipal Airport

克林顿, 艾奥瓦州, 美国

纬度: 41-50N, 经度: 090-20W, 海拔: 216米

当前天气观测

该预报发布于13分钟前的23:56 UTC
风速20节,风向西,有时为24节阵风
温度 23°C
湿度 65%
气压 1005 hPa
能見度: 16.1公里
天空无云

METAR: KCWI 242356Z AUTO 28020G24KT 10SM CLR 23/16 A2969 RMK AO2 SLP069 60005 T02280161 10267 20172 53009

时间: 19:09 (00:09 UTC)


TAF: 丢失

超过4000个机场的气象观测和天气预报(METAR&TAF报告)。

可查询的气象台以黄色和红色小点在地图上表示。

将鼠标移到小点上方,可查看气象台名称。

然后点击查看天气观测和预报。

如需切换地图:点击带黑十字的绿色按钮放大地图;点击带横线的绿色按钮缩小地图;或者点击绿色箭头查看邻近地区的地图。


METAR-TAF: